This demonstration page uses our WeatherBlox Daily Observations layout. Learn more.

39.92423, -83.80882

Hourly Observations for August 19, 2018

Temp ( °F °C ) Dew Point ( °F °C ) Humidity (%) Winds ( mph kmh ) Pressure ( in mb ) Visibility ( mi km ) Precip ( " mm )
12:56 am 00:56 Clear 68 20 67 19.4 96 96 NNE 6 9 29.95 1014 10 16.0934 0 0
1:56 am 01:56 Clear 67 19.4 65 18.3 93 93 NE 5 7 29.95 1014 10 16.0934 0 0
2:56 am 02:56 Clear 66 18.9 64 17.8 93 93 NE 7 11 29.95 1014 10 16.0934 0 0
3:56 am 03:56 Clear 64 17.8 63 17.2 96 96 NE 7 11 29.94 1014 10 16.0934 0 0
4:56 am 04:56 Clear 64 17.8 63 17.2 96 96 E 3 6 29.95 1014 10 16.0934 0 0
5:56 am 05:56 Clear 63 17.2 63 17.2 100 100 E 5 7 29.95 1014 10 16.0934 0 0
6:56 am 06:56 Sunny 61 16.1 61 16.1 100 100 NE 6 9 29.96 1015 7 11.26538 0 0
7:56 am 07:56 Sunny 63 17.2 63 17.2 100 100 NE 6 9 29.98 1015 9 14.48406 0 0
8:56 am 08:56 Sunny 67 19.4 64 17.8 91 91 ENE 8 13 29.99 1016 10 16.0934 0 0
9:56 am 09:56 Sunny 70 21.1 66 18.9 87 87 E 6 9 29.99 1016 10 16.0934 0 0
10:56 am 10:56 Sunny 73 22.8 66 18.9 79 79 E 3 6 30 1016 10 16.0934 0 0
11:56 am 11:56 Sunny 76 24.4 66 18.9 72 72 E 5 7 30 1016 10 16.0934 0 0
12:56 pm 12:56 Sunny 77 25 65 18.3 66 66 NNE 5 7 30 1016 10 16.0934 0 0
1:56 pm 13:56 Sunny 79 26.1 63 17.2 58 58 Calm 30 1016 10 16.0934 0 0
2:56 pm 14:56 Sunny 80 26.7 64 17.8 58 58 Calm 29.99 1016 10 16.0934 0 0
3:56 pm 15:56 Sunny 80 26.7 65 18.3 60 60 SE 5 7 29.98 1015 10 16.0934 0 0
4:56 pm 16:56 Sunny 80 26.7 66 18.9 62 62 E 6 9 29.98 1015 10 16.0934 0 0
5:56 pm 17:56 Sunny 79 26.1 65 18.3 62 62 E 7 11 29.97 1015 10 16.0934 0 0
6:56 pm 18:56 Sunny 78 25.6 67 19.4 69 69 ENE 7 11 29.97 1015 10 16.0934 0 0
7:56 pm 19:56 Sunny 74 23.3 67 19.4 79 79 ENE 6 9 29.98 1015 10 16.0934 0 0
8:56 pm 20:56 Clear 69 20.6 66 18.9 90 90 ENE 6 9 29.98 1015 10 16.0934 0 0
9:56 pm 21:56 Clear 67 19.4 64 17.8 91 91 E 6 9 30 1016 10 16.0934 0 0
10:56 pm 22:56 Clear 66 18.9 64 17.8 93 93 ESE 5 7 30.02 1017 10 16.0934 0 0
11:56 pm 23:56 Clear 64 17.8 63 17.2 96 96 E 3 6 30.02 1017 10 16.0934 0 0

Powered by AerisWeather